Extreme weather reports worldwide

High winds

Station
 
Location
 
Name
 
Wind
Knots
Gust
Knots
Vis
SM
Temp/Dew
C
Baro
inHg
METAR
 
STY SUSO Salto, UY Nueva Hesperides International Airport 40 6.21 12/8 30.44 SUSO 011400Z 180040KT CAVOK 12/08 Q1031
ENQA NO Troll A Platform 39 13/8 29.65 ENQA 011420Z AUTO 36039KT 9999NDV FEW022/// 13/08 Q1004 W13/S5
ENOA NO Oseberg A Platform 35 6.21 13/7 29.70 ENOA 011420Z 36035KT 9999 BKN025 13/07 Q1006 W///S4
BBA SCBA Balmaceda, CL Balmaceda Airport 34 44 6.21 8/2 29.91 SCBA 011400Z 30034G44KT 9999 SCT030 SCT200 08/02 Q1013
ENQC NO Troll C Platform 32 13/6 29.68 ENQC 011420Z AUTO 35032KT 9999NDV BKN026/// 13/06 Q1005 W///S5

Station
 
Location
 
Name
 
Wind
Knots
Gust
Knots
Vis
SM
Temp/Dew
C
Baro
inHg
METAR
 
ENSL NO Sleipner A Platform 32 14/9 29.76 ENSL 011420Z AUTO 34032KT 9999NDV BKN021/// 14/09 Q1008 W14/S5
LPA GCLP Gran Canaria Island, ES Gran Canaria Airport 31 6.21 26/17 30.09 GCLP 011430Z 01031KT 9999 SCT025 26/17 Q1019 NOSIG
LIMU 30 40 6.21 26/18 29.65 LIMU 011355Z 24030G40KT 9999 FEW020TCU 26/18 Q1004 RMK FEW QUK 4 QUL 3 S VIS MAR 20 KM VIS MIN 9999
VIL GMMH Dakhla, EH Dakhla Airport 29 3.73 25/17 29.91 GMMH 011400Z 01029KT 6000 NSC 25/17 Q1013 NOSIG
ENHM 29 13/7 29.76 ENHM 011420Z AUTO 36029KT 340V040 9999NDV FEW027/// BKN032/// 13/07 Q1008 W15/S/
NZCM 28 36 1.8 -27/-34 29.11 NZCM 011355Z AUTO 09028G36KT 2900 BLSN BR FEW002 M28/M34 A2911 RMK AO2 PK WND 09040/1339 VIS 1700V7000 SNB1352E1353 PRESRR SLP865 T12771344 $
CWOB 27 34 3/3 29.58 CWOB 011400Z AUTO 04027G34KT ////SM FEW002 03/03 A2958
BWB YBWX AU Barrow Island Airport 27 20/10 30.06 YBWX 011400Z AUTO 18027KT //// // ////// 20/10 Q1018
ENGC 27 6.21 12/9 29.76 ENGC 011420Z 35027KT 9999 BKN025 12/09 Q1008 W13/S4
ENSE 27 12/9 29.76 ENSE 011420Z AUTO 35027KT 9999NDV BKN024/// 12/09 Q1008 W///S5
ACE GCRR Lanzarote Island, ES Lanzarote Airport 27 6.21 26/16 30.03 GCRR 011430Z 01027KT 9999 FEW020 26/16 Q1017
TFS GCTS Tenerife Island, ES Tenerife South Airport 27 6.21 27/17 30.06 GCTS 011430Z 07027KT CAVOK 27/17 Q1018 WS R07 NOSIG
PSY SFAL Stanley, FK Port Stanley Airport 27 39 6.21 7/4 29.73 SFAL 011450Z 32027G39KT 9999 FEW030 07/04 Q1007
PIZ PPIZ Point Lay, US Point Lay LRRS Airport 26 32 4 7/6 29.68 PPIZ 011356Z AUTO 21026G32KT 4SM BR OVC008 07/07 A2968 RMK AO2 PK WND 21034/1306 SLP054 T00720067 PNO $
EUN GMML El Aaiún, EH Hassan I Airport 26 2.49 28/16 29.97 GMML 011400Z 03026KT 4000 SA NSC 28/16 Q1015 NOSIG
ENLA NO Ula Platform 26 15/10 29.70 ENLA 011420Z AUTO 30026KT 9999NDV BKN026/// 15/10 Q1006 W///S4
ENLE 26 6.21 14/10 29.73 ENLE 011420Z 33026KT 9999 SCT020TCU SCT060 14/10 Q1007 W17/S5
ENQR 26 12/8 29.76 ENQR 011420Z AUTO 35026KT //// BKN020/// 12/08 Q1008 W///S4
OODQ 25 6.21 27/23 29.50 OODQ 011350Z AUTO 20025KT 9999 FEW032 SCT038 BKN045 27/23 Q0999 NOSIG RMK RH77? 0
ENSF 25 12/8 29.79 ENSF 011420Z AUTO 34025KT 9999NDV BKN018/// 12/08 Q1009 W///S5
NCE LFMN Nice, FR Nice-Côte d'Azur Airport 25 6.21 32/13 29.62 LFMN 011430Z 25025KT 9999 FEW050 32/13 Q1003 TEMPO 25025G35KT
YAY CYAY St. Anthony, CA St. Anthony Airport 25 30 9 18/12 29.66 CYAY 011446Z AUTO 23025G30KT 9SM BKN025 BKN035 OVC060 18/12 A2966 RMK SLP045 DENSITY ALT 900FT
CXBO 24 19/12 CXBO 011400Z AUTO 00024KT 19/12 RMK AO1 T01920120
NLG PAOU Nelson Lagoon, US Nelson Lagoon Airport 23 10 13/12 29.88 PAOU 011356Z AUTO 13023KT 10SM BKN060 OVC110 13/12 A2988 RMK AO2 PK WND 13028/1349 SLP117 T01330122
PLZ FAPE Port Elizabeth, ZA Port Elizabeth Airport 23 34 6.21 16/12 30.09 FAPE 011400Z 24023G34KT 9999 FEW040 16/12 Q1019 NOSIG
ESU GMMI Essaouira, MA Mogador Airport 23 4.35 29/16 29.94 GMMI 011400Z 01023KT 7000 NSC 29/16 Q1014 NOSIG
ACZ OIZB IR Zabol Airport 23 37 5.59 38/-2 29.44 OIZB 011400Z 34023G37KT 9000 NSC 38/M02 Q0997
AUA TNCA Oranjestad, AW Queen Beatrix International Airport 23 6.21 31/24 29.94 TNCA 011400Z 10023KT 9999 SCT019 31/24 Q1014 NOSIG
PSA LIRP Pisa, IT Pisa International Airport 23 33 6.21 27/15 29.76 LIRP 011415Z 25023G33KT CAVOK 27/15 Q1008 TEMPO 24020G30KT
FBU ENFB Oslo, NO Oslo, Fornebu Airport 23 12/8 29.79 ENFB 011420Z AUTO 34023KT 9999NDV BKN018/// 12/08 Q1009 W///S/
FRO ENFL Florø, NO Florø Airport 23 6.21 15/9 29.65 ENFL 011420Z 33023KT 9999 FEW015 15/09 Q1004
ENWV 23 14/9 29.73 ENWV 011420Z AUTO 31023KT 9999NDV FEW018/// BKN031/// 14/09 Q1007 W///S4
PEG LIRZ Perugia, IT Perugia San Francesco d'Assisi – Umbria International Airport 23 6.21 31/11 29.79 LIRZ 011420Z AUTO 21023KT 9999 NCD 31/11 Q1009
HAU ENHD Karmøy, NO Haugesund Airport 23 6.21 15/11 29.56 ENHD 011450Z 35023KT 9999 FEW020 15/11 Q1001
CWQK 22 12/ CWQK 011400Z AUTO 27022KT 13/ RMK AO1 PK WND 27030/1302 SLP174 T0126 51014
YJT CYJT Stephenville, CA Stephenville Airport 22 28 15 18/15 29.81 CYJT 011400Z 23022G28KT 15SM FEW012 SCT100 18/15 A2981 RMK SC2AC2 SLP095 DENSITY ALT 700FT
TTA GMAT Tan Tan, MA Tan Tan Airport 22 4.35 23/15 29.94 GMAT 011400Z 01022KT 7000 FEW016 23/15 Q1014 NOSIG
EHAK 22 6.21 15/9 29.76 EHAK 011425Z AUTO 34022KT 310V020 9999 FEW023/// SCT027/// BKN039/// 15/09 Q1008
FOG LIBF Foggia, IT Foggia "Gino Lisa" Airport 21 32 6.21 39/12 29.76 LIBF 011350Z 25021G32KT CAVOK 39/12 Q1008
VAS LTAR Sivas, TR Sivas Nuri DemiraÄŸ Airport 21 6.21 24/10 30.00 LTAR 011350Z 34021KT CAVOK 24/10 Q1016
CWZZ 21 / 29.34 CWZZ 011400Z AUTO 36021KT ////SM NCD 02/// A2934
DTTB Sidi Ahmed, TN Sidi Ahmed Air Base 21 6.21 32/21 29.88 DTTB 011400Z 30021KT CAVOK 32/21 Q1012
KIN MKJP Kingston, JM Norman Manley International Airport 21 6.21 30/24 30.00 MKJP 011400Z 11021KT 9999 FEW020 FEW022CB 30/24 Q1016
JWN OITZ Zanjan, IR Zanjan Airport 21 6.21 24/8 29.88 OITZ 011400Z 15021KT 9999 FEW020 FEW030CB SCT035 24/08 Q1012 A2991
SFS RPLB Olongapo City, PH Subic Bay International Airport 21 6.21 29/26 29.73 RPLB 011400Z 22021KT 9999 TS FEW017CB BKN018 OVC080 29/26 Q1007 RESHRA RMK A2974 CB N,W WITH OCNL LTG